sensor_id;sensor_type;location;lat;lon;timestamp;pressure;altitude;pressure_sealevel;temperature;humidity
18813;BME280;9534;51.140;6.296;2023-03-16T00:02:22;100823.53;;;3.05;100.00
18813;BME280;9534;51.140;6.296;2023-03-16T00:06:26;100812.41;;;3.08;100.00
18813;BME280;9534;51.140;6.296;2023-03-16T00:10:29;100805.13;;;3.08;100.00
18813;BME280;9534;51.140;6.296;2023-03-16T00:14:32;100797.25;;;3.15;100.00
18813;BME280;9534;51.140;6.296;2023-03-16T00:18:43;100788.13;;;3.16;100.00
18813;BME280;9534;51.140;6.296;2023-03-16T00:22:47;100795.91;;;3.19;100.00
18813;BME280;9534;51.140;6.296;2023-03-16T00:26:50;100793.41;;;3.25;100.00
18813;BME280;9534;51.140;6.296;2023-03-16T00:30:55;100799.00;;;3.24;100.00
18813;BME280;9534;51.140;6.296;2023-03-16T00:35:01;100793.22;;;3.19;100.00
18813;BME280;9534;51.140;6.296;2023-03-16T00:39:06;100797.13;;;3.24;100.00
18813;BME280;9534;51.140;6.296;2023-03-16T00:43:09;100791.06;;;3.30;100.00
18813;BME280;9534;51.140;6.296;2023-03-16T00:47:12;100793.97;;;3.29;100.00
18813;BME280;9534;51.140;6.296;2023-03-16T00:51:18;100779.75;;;3.27;100.00
18813;BME280;9534;51.140;6.296;2023-03-16T00:55:21;100766.28;;;3.35;100.00
18813;BME280;9534;51.140;6.296;2023-03-16T00:59:24;100765.59;;;3.33;100.00
18813;BME280;9534;51.140;6.296;2023-03-16T01:03:28;100757.78;;;3.30;100.00
18813;BME280;9534;51.140;6.296;2023-03-16T01:07:32;100757.09;;;3.28;100.00
18813;BME280;9534;51.140;6.296;2023-03-16T01:11:37;100752.06;;;3.33;100.00
18813;BME280;9534;51.140;6.296;2023-03-16T01:15:40;100740.25;;;3.34;100.00
18813;BME280;9534;51.140;6.296;2023-03-16T01:19:44;100736.16;;;3.30;100.00
18813;BME280;9534;51.140;6.296;2023-03-16T01:23:49;100734.59;;;3.27;100.00
18813;BME280;9534;51.140;6.296;2023-03-16T01:27:54;100736.47;;;3.27;100.00
18813;BME280;9534;51.140;6.296;2023-03-16T01:31:57;100721.72;;;3.21;100.00
18813;BME280;9534;51.140;6.296;2023-03-16T01:36:03;100715.00;;;3.25;100.00
18813;BME280;9534;51.140;6.296;2023-03-16T01:40:17;100711.47;;;3.25;100.00
18813;BME280;9534;51.140;6.296;2023-03-16T01:44:22;100708.56;;;3.26;100.00
18813;BME280;9534;51.140;6.296;2023-03-16T01:48:38;100701.47;;;3.25;100.00
18813;BME280;9534;51.140;6.296;2023-03-16T01:52:43;100699.31;;;3.29;100.00
18813;BME280;9534;51.140;6.296;2023-03-16T01:56:54;100711.28;;;3.26;100.00
18813;BME280;9534;51.140;6.296;2023-03-16T02:00:58;100712.84;;;3.29;100.00
18813;BME280;9534;51.140;6.296;2023-03-16T02:05:04;100704.03;;;3.27;100.00
18813;BME280;9534;51.140;6.296;2023-03-16T02:09:10;100692.34;;;3.26;100.00
18813;BME280;9534;51.140;6.296;2023-03-16T02:13:15;100695.41;;;3.31;100.00
18813;BME280;9534;51.140;6.296;2023-03-16T02:17:20;100689.69;;;3.34;100.00
18813;BME280;9534;51.140;6.296;2023-03-16T02:21:31;100678.88;;;3.34;100.00
18813;BME280;9534;51.140;6.296;2023-03-16T02:25:42;100688.84;;;3.34;100.00
18813;BME280;9534;51.140;6.296;2023-03-16T02:29:56;100678.72;;;3.36;100.00
18813;BME280;9534;51.140;6.296;2023-03-16T02:34:07;100668.25;;;3.41;100.00
18813;BME280;9534;51.140;6.296;2023-03-16T02:38:11;100658.81;;;3.45;100.00
18813;BME280;9534;51.140;6.296;2023-03-16T02:42:24;100653.06;;;3.48;100.00
18813;BME280;9534;51.140;6.296;2023-03-16T02:46:33;100641.88;;;3.51;100.00
18813;BME280;9534;51.140;6.296;2023-03-16T02:50:43;100649.53;;;3.55;100.00
18813;BME280;9534;51.140;6.296;2023-03-16T02:54:48;100640.56;;;3.55;100.00
18813;BME280;9534;51.140;6.296;2023-03-16T02:58:51;100645.47;;;3.59;100.00
18813;BME280;9534;51.140;6.296;2023-03-16T03:02:56;100631.78;;;3.61;100.00
18813;BME280;9534;51.140;6.296;2023-03-16T03:07:00;100633.47;;;3.62;100.00
18813;BME280;9534;51.140;6.296;2023-03-16T03:11:16;100630.41;;;3.57;100.00
18813;BME280;9534;51.140;6.296;2023-03-16T03:15:20;100630.97;;;3.68;100.00
18813;BME280;9534;51.140;6.296;2023-03-16T03:19:35;100626.38;;;3.68;100.00
18813;BME280;9534;51.140;6.296;2023-03-16T03:23:38;100624.34;;;3.70;100.00
18813;BME280;9534;51.140;6.296;2023-03-16T03:27:42;100620.97;;;3.76;100.00
18813;BME280;9534;51.140;6.296;2023-03-16T03:31:49;100617.59;;;3.74;100.00
18813;BME280;9534;51.140;6.296;2023-03-16T03:35:54;100619.81;;;3.71;100.00
18813;BME280;9534;51.140;6.296;2023-03-16T03:39:59;100620.97;;;3.68;100.00
18813;BME280;9534;51.140;6.296;2023-03-16T03:44:05;100625.38;;;3.69;100.00
18813;BME280;9534;51.140;6.296;2023-03-16T03:48:10;100621.97;;;3.67;100.00
18813;BME280;9534;51.140;6.296;2023-03-16T03:52:14;100627.72;;;3.65;100.00
18813;BME280;9534;51.140;6.296;2023-03-16T03:56:17;100620.28;;;3.67;100.00
18813;BME280;9534;51.140;6.296;2023-03-16T04:00:21;100616.22;;;3.70;100.00
18813;BME280;9534;51.140;6.296;2023-03-16T04:04:24;100618.25;;;3.68;100.00
18813;BME280;9534;51.140;6.296;2023-03-16T04:08:29;100627.38;;;3.67;100.00
18813;BME280;9534;51.140;6.296;2023-03-16T04:12:33;100631.09;;;3.67;100.00
18813;BME280;9534;51.140;6.296;2023-03-16T04:16:36;100627.06;;;3.70;100.00
18813;BME280;9534;51.140;6.296;2023-03-16T04:20:40;100617.25;;;3.77;100.00
18813;BME280;9534;51.140;6.296;2023-03-16T04:24:48;100611.69;;;3.79;100.00
18813;BME280;9534;51.140;6.296;2023-03-16T04:28:54;100604.06;;;3.82;100.00
18813;BME280;9534;51.140;6.296;2023-03-16T04:32:57;100594.78;;;3.85;100.00
18813;BME280;9534;51.140;6.296;2023-03-16T04:37:00;100598.66;;;3.82;100.00
18813;BME280;9534;51.140;6.296;2023-03-16T04:41:08;100589.19;;;3.86;100.00
18813;BME280;9534;51.140;6.296;2023-03-16T04:45:18;100591.56;;;3.89;100.00
18813;BME280;9534;51.140;6.296;2023-03-16T04:49:25;100585.31;;;3.89;100.00
18813;BME280;9534;51.140;6.296;2023-03-16T04:53:28;100584.78;;;3.93;100.00
18813;BME280;9534;51.140;6.296;2023-03-16T04:57:38;100579.03;;;3.96;100.00
18813;BME280;9534;51.140;6.296;2023-03-16T05:01:41;100581.06;;;3.94;100.00
18813;BME280;9534;51.140;6.296;2023-03-16T05:05:47;100585.81;;;3.92;100.00
18813;BME280;9534;51.140;6.296;2023-03-16T05:09:52;100581.41;;;3.91;100.00
18813;BME280;9534;51.140;6.296;2023-03-16T05:13:57;100577.88;;;3.91;100.00
18813;BME280;9534;51.140;6.296;2023-03-16T05:18:00;100580.06;;;3.87;100.00
18813;BME280;9534;51.140;6.296;2023-03-16T05:22:04;100585.81;;;3.84;100.00
18813;BME280;9534;51.140;6.296;2023-03-16T05:26:08;100577.00;;;3.82;100.00
18813;BME280;9534;51.140;6.296;2023-03-16T05:30:14;100589.88;;;3.80;100.00
18813;BME280;9534;51.140;6.296;2023-03-16T05:34:19;100594.59;;;3.78;100.00
18813;BME280;9534;51.140;6.296;2023-03-16T05:38:22;100587.16;;;3.80;100.00
18813;BME280;9534;51.140;6.296;2023-03-16T05:42:27;100598.66;;;3.82;100.00
18813;BME280;9534;51.140;6.296;2023-03-16T05:46:36;100586.13;;;3.81;100.00
18813;BME280;9534;51.140;6.296;2023-03-16T05:50:40;100576.53;;;3.87;100.00
18813;BME280;9534;51.140;6.296;2023-03-16T05:54:45;100587.50;;;3.93;100.00
18813;BME280;9534;51.140;6.296;2023-03-16T05:58:49;100582.91;;;3.94;100.00
18813;BME280;9534;51.140;6.296;2023-03-16T06:02:54;100588.53;;;4.00;100.00
18813;BME280;9534;51.140;6.296;2023-03-16T06:07:02;100577.00;;;3.98;100.00
18813;BME280;9534;51.140;6.296;2023-03-16T06:11:05;100584.59;;;4.03;100.00
18813;BME280;9534;51.140;6.296;2023-03-16T06:15:10;100579.38;;;4.01;100.00
18813;BME280;9534;51.140;6.296;2023-03-16T06:19:16;100581.91;;;4.03;100.00
18813;BME280;9534;51.140;6.296;2023-03-16T06:23:23;100584.78;;;4.09;100.00
18813;BME280;9534;51.140;6.296;2023-03-16T06:27:28;100577.34;;;4.11;100.00
18813;BME280;9534;51.140;6.296;2023-03-16T06:31:41;100572.59;;;4.13;100.00
18813;BME280;9534;51.140;6.296;2023-03-16T06:35:46;100578.16;;;4.20;100.00
18813;BME280;9534;51.140;6.296;2023-03-16T06:39:58;100582.56;;;4.21;100.00
18813;BME280;9534;51.140;6.296;2023-03-16T06:44:02;100572.25;;;4.32;100.00
18813;BME280;9534;51.140;6.296;2023-03-16T06:48:10;100585.59;;;4.34;100.00
18813;BME280;9534;51.140;6.296;2023-03-16T06:52:15;100595.91;;;4.38;100.00
18813;BME280;9534;51.140;6.296;2023-03-16T06:56:19;100599.28;;;4.48;100.00
18813;BME280;9534;51.140;6.296;2023-03-16T07:00:24;100598.91;;;4.59;100.00
18813;BME280;9534;51.140;6.296;2023-03-16T07:04:27;100600.25;;;4.71;100.00
18813;BME280;9534;51.140;6.296;2023-03-16T07:08:33;100599.38;;;4.79;100.00
18813;BME280;9534;51.140;6.296;2023-03-16T07:12:37;100612.38;;;4.91;100.00
18813;BME280;9534;51.140;6.296;2023-03-16T07:16:40;100605.25;;;4.98;100.00
18813;BME280;9534;51.140;6.296;2023-03-16T07:20:44;100602.16;;;5.09;100.00
18813;BME280;9534;51.140;6.296;2023-03-16T07:24:50;100587.22;;;5.13;100.00
18813;BME280;9534;51.140;6.296;2023-03-16T07:28:59;100592.22;;;5.24;100.00
18813;BME280;9534;51.140;6.296;2023-03-16T07:33:05;100585.41;;;5.28;100.00
18813;BME280;9534;51.140;6.296;2023-03-16T07:37:09;100575.59;;;5.27;100.00
18813;BME280;9534;51.140;6.296;2023-03-16T07:41:14;100586.88;;;5.46;100.00
18813;BME280;9534;51.140;6.296;2023-03-16T07:45:18;100584.25;;;5.53;100.00
18813;BME280;9534;51.140;6.296;2023-03-16T07:49:22;100594.91;;;5.62;100.00
18813;BME280;9534;51.140;6.296;2023-03-16T07:53:27;100603.81;;;5.71;100.00
18813;BME280;9534;51.140;6.296;2023-03-16T07:57:50;100598.88;;;5.74;100.00
18813;BME280;9534;51.140;6.296;2023-03-16T08:02:00;100585.53;;;5.65;100.00
18813;BME280;9534;51.140;6.296;2023-03-16T08:06:05;100593.94;;;5.78;100.00
18813;BME280;9534;51.140;6.296;2023-03-16T08:10:10;100582.53;;;5.82;100.00
18813;BME280;9534;51.140;6.296;2023-03-16T08:14:30;100583.72;;;5.88;100.00
18813;BME280;9534;51.140;6.296;2023-03-16T08:18:43;100584.19;;;5.91;100.00
18813;BME280;9534;51.140;6.296;2023-03-16T08:22:47;100564.09;;;6.00;100.00
18813;BME280;9534;51.140;6.296;2023-03-16T08:26:56;100588.63;;;6.07;100.00
18813;BME280;9534;51.140;6.296;2023-03-16T08:31:06;100589.78;;;6.12;100.00
18813;BME280;9534;51.140;6.296;2023-03-16T08:35:16;100590.91;;;6.17;100.00
18813;BME280;9534;51.140;6.296;2023-03-16T08:39:21;100584.38;;;6.26;100.00
18813;BME280;9534;51.140;6.296;2023-03-16T08:43:25;100584.50;;;6.33;100.00
18813;BME280;9534;51.140;6.296;2023-03-16T08:47:30;100575.84;;;6.29;100.00
18813;BME280;9534;51.140;6.296;2023-03-16T08:51:34;100575.19;;;6.27;100.00
18813;BME280;9534;51.140;6.296;2023-03-16T08:55:38;100576.09;;;6.57;100.00
18813;BME280;9534;51.140;6.296;2023-03-16T08:59:42;100571.69;;;6.70;100.00
18813;BME280;9534;51.140;6.296;2023-03-16T09:03:47;100566.59;;;6.96;100.00
18813;BME280;9534;51.140;6.296;2023-03-16T09:07:52;100565.19;;;7.00;100.00
18813;BME280;9534;51.140;6.296;2023-03-16T09:11:55;100574.28;;;7.07;100.00
18813;BME280;9534;51.140;6.296;2023-03-16T09:16:00;100558.25;;;7.12;100.00
18813;BME280;9534;51.140;6.296;2023-03-16T09:20:07;100549.16;;;7.05;100.00
18813;BME280;9534;51.140;6.296;2023-03-16T09:24:26;100546.88;;;7.23;100.00
18813;BME280;9534;51.140;6.296;2023-03-16T09:28:30;100551.50;;;7.23;100.00
18813;BME280;9534;51.140;6.296;2023-03-16T09:32:33;100544.44;;;7.28;100.00
18813;BME280;9534;51.140;6.296;2023-03-16T09:36:39;100544.19;;;7.44;100.00
18813;BME280;9534;51.140;6.296;2023-03-16T09:40:43;100530.22;;;7.68;100.00
18813;BME280;9534;51.140;6.296;2023-03-16T09:44:59;100520.41;;;7.52;100.00
18813;BME280;9534;51.140;6.296;2023-03-16T09:49:12;100527.41;;;7.82;100.00
18813;BME280;9534;51.140;6.296;2023-03-16T09:53:23;100514.47;;;8.33;100.00
18813;BME280;9534;51.140;6.296;2023-03-16T09:57:29;100525.75;;;8.97;100.00
18813;BME280;9534;51.140;6.296;2023-03-16T10:01:41;100522.38;;;8.95;100.00
18813;BME280;9534;51.140;6.296;2023-03-16T10:05:47;100501.50;;;8.75;100.00
18813;BME280;9534;51.140;6.296;2023-03-16T10:09:55;100516.06;;;8.88;100.00
18813;BME280;9534;51.140;6.296;2023-03-16T10:14:03;100514.28;;;8.74;100.00
18813;BME280;9534;51.140;6.296;2023-03-16T10:18:15;100512.47;;;9.28;100.00
18813;BME280;9534;51.140;6.296;2023-03-16T10:22:22;100507.22;;;9.33;100.00
18813;BME280;9534;51.140;6.296;2023-03-16T10:26:35;100496.16;;;9.67;100.00
18813;BME280;9534;51.140;6.296;2023-03-16T10:30:40;100485.25;;;9.93;100.00
18813;BME280;9534;51.140;6.296;2023-03-16T10:34:51;100482.13;;;11.05;100.00
18813;BME280;9534;51.140;6.296;2023-03-16T10:38:56;100467.97;;;11.51;100.00
18813;BME280;9534;51.140;6.296;2023-03-16T10:43:06;100474.44;;;11.19;100.00
18813;BME280;9534;51.140;6.296;2023-03-16T10:47:16;100470.66;;;11.95;100.00
18813;BME280;9534;51.140;6.296;2023-03-16T10:51:23;100462.63;;;10.82;100.00
18813;BME280;9534;51.140;6.296;2023-03-16T10:55:28;100462.06;;;11.85;100.00
18813;BME280;9534;51.140;6.296;2023-03-16T10:59:37;100480.25;;;12.53;100.00
18813;BME280;9534;51.140;6.296;2023-03-16T11:03:41;100468.00;;;12.07;100.00
18813;BME280;9534;51.140;6.296;2023-03-16T11:07:48;100458.81;;;11.70;100.00
18813;BME280;9534;51.140;6.296;2023-03-16T11:11:52;100466.16;;;12.25;100.00
18813;BME280;9534;51.140;6.296;2023-03-16T11:16:01;100468.81;;;12.56;100.00
18813;BME280;9534;51.140;6.296;2023-03-16T11:20:12;100463.13;;;13.41;100.00
18813;BME280;9534;51.140;6.296;2023-03-16T11:24:22;100462.19;;;13.17;100.00
18813;BME280;9534;51.140;6.296;2023-03-16T11:28:33;100448.06;;;12.60;100.00
18813;BME280;9534;51.140;6.296;2023-03-16T11:32:43;100441.03;;;13.00;100.00
18813;BME280;9534;51.140;6.296;2023-03-16T11:36:51;100440.59;;;12.85;100.00
18813;BME280;9534;51.140;6.296;2023-03-16T11:40:59;100435.13;;;13.61;100.00
18813;BME280;9534;51.140;6.296;2023-03-16T11:45:12;100418.56;;;14.02;100.00
18813;BME280;9534;51.140;6.296;2023-03-16T11:49:44;100417.88;;;12.78;100.00
18813;BME280;9534;51.140;6.296;2023-03-16T11:53:56;100399.09;;;12.57;100.00
18813;BME280;9534;51.140;6.296;2023-03-16T11:58:14;100385.91;;;12.65;100.00
18813;BME280;9534;51.140;6.296;2023-03-16T12:02:32;100383.72;;;12.74;100.00
18813;BME280;9534;51.140;6.296;2023-03-16T12:06:52;100381.09;;;12.79;100.00
18813;BME280;9534;51.140;6.296;2023-03-16T12:11:01;100370.66;;;12.69;100.00
18813;BME280;9534;51.140;6.296;2023-03-16T12:15:17;100370.13;;;12.43;100.00
18813;BME280;9534;51.140;6.296;2023-03-16T12:19:38;100367.69;;;12.35;100.00
18813;BME280;9534;51.140;6.296;2023-03-16T12:23:50;100347.13;;;12.44;100.00
18813;BME280;9534;51.140;6.296;2023-03-16T12:27:56;100349.53;;;12.34;100.00
18813;BME280;9534;51.140;6.296;2023-03-16T12:32:09;100344.97;;;12.64;100.00
18813;BME280;9534;51.140;6.296;2023-03-16T12:41:13;100339.25;;;12.47;100.00
18813;BME280;9534;51.140;6.296;2023-03-16T12:45:25;100323.69;;;12.89;100.00
18813;BME280;9534;51.140;6.296;2023-03-16T12:49:33;100312.38;;;12.97;100.00
18813;BME280;9534;51.140;6.296;2023-03-16T12:53:41;100316.66;;;12.93;100.00
18813;BME280;9534;51.140;6.296;2023-03-16T12:57:48;100303.50;;;13.13;100.00
18813;BME280;9534;51.140;6.296;2023-03-16T13:01:57;100307.47;;;13.17;100.00
18813;BME280;9534;51.140;6.296;2023-03-16T13:06:01;100300.84;;;13.81;100.00
18813;BME280;9534;51.140;6.296;2023-03-16T13:10:09;100303.03;;;14.25;100.00
18813;BME280;9534;51.140;6.296;2023-03-16T13:14:32;100283.81;;;14.53;100.00
18813;BME280;9534;51.140;6.296;2023-03-16T13:18:38;100275.34;;;14.43;100.00
18813;BME280;9534;51.140;6.296;2023-03-16T13:22:47;100268.25;;;15.03;100.00
18813;BME280;9534;51.140;6.296;2023-03-16T13:26:53;100263.34;;;14.77;100.00
18813;BME280;9534;51.140;6.296;2023-03-16T13:31:02;100268.75;;;15.16;100.00
18813;BME280;9534;51.140;6.296;2023-03-16T13:35:07;100248.72;;;14.49;100.00
18813;BME280;9534;51.140;6.296;2023-03-16T13:39:17;100256.75;;;14.50;100.00
18813;BME280;9534;51.140;6.296;2023-03-16T13:43:24;100252.66;;;14.53;100.00
18813;BME280;9534;51.140;6.296;2023-03-16T13:47:30;100240.63;;;14.70;100.00
18813;BME280;9534;51.140;6.296;2023-03-16T13:51:35;100227.56;;;15.38;100.00
18813;BME280;9534;51.140;6.296;2023-03-16T13:55:43;100215.78;;;14.82;100.00
18813;BME280;9534;51.140;6.296;2023-03-16T13:59:48;100222.31;;;14.64;100.00
18813;BME280;9534;51.140;6.296;2023-03-16T14:03:54;100209.31;;;14.20;100.00
18813;BME280;9534;51.140;6.296;2023-03-16T14:07:59;100197.00;;;14.95;100.00
18813;BME280;9534;51.140;6.296;2023-03-16T14:12:03;100194.53;;;14.66;100.00
18813;BME280;9534;51.140;6.296;2023-03-16T14:16:12;100195.94;;;14.96;100.00
18813;BME280;9534;51.140;6.296;2023-03-16T14:20:21;100186.84;;;15.45;100.00
18813;BME280;9534;51.140;6.296;2023-03-16T14:24:29;100182.91;;;15.08;100.00
18813;BME280;9534;51.140;6.296;2023-03-16T14:28:33;100186.84;;;15.45;100.00
18813;BME280;9534;51.140;6.296;2023-03-16T14:32:36;100183.25;;;15.28;100.00
18813;BME280;9534;51.140;6.296;2023-03-16T14:36:42;100157.56;;;15.60;100.00
18813;BME280;9534;51.140;6.296;2023-03-16T14:40:51;100137.84;;;15.90;100.00
18813;BME280;9534;51.140;6.296;2023-03-16T14:44:56;100149.81;;;15.41;100.00
18813;BME280;9534;51.140;6.296;2023-03-16T14:49:02;100149.75;;;15.36;100.00
18813;BME280;9534;51.140;6.296;2023-03-16T14:53:09;100150.13;;;15.61;100.00
18813;BME280;9534;51.140;6.296;2023-03-16T14:57:15;100139.63;;;15.41;100.00
18813;BME280;9534;51.140;6.296;2023-03-16T15:01:21;100144.88;;;15.26;100.00
18813;BME280;9534;51.140;6.296;2023-03-16T15:05:31;100137.47;;;15.27;100.00
18813;BME280;9534;51.140;6.296;2023-03-16T15:09:39;100128.13;;;16.08;100.00
18813;BME280;9534;51.140;6.296;2023-03-16T15:13:44;100119.16;;;15.97;100.00
18813;BME280;9534;51.140;6.296;2023-03-16T15:18:05;100115.28;;;15.55;100.00
18813;BME280;9534;51.140;6.296;2023-03-16T15:22:10;100110.84;;;15.54;100.00
18813;BME280;9534;51.140;6.296;2023-03-16T15:26:18;100108.91;;;15.00;100.00
18813;BME280;9534;51.140;6.296;2023-03-16T15:30:26;100105.25;;;15.11;100.00
18813;BME280;9534;51.140;6.296;2023-03-16T15:34:31;100093.88;;;14.91;100.00
18813;BME280;9534;51.140;6.296;2023-03-16T15:38:37;100083.69;;;14.14;100.00
18813;BME280;9534;51.140;6.296;2023-03-16T15:42:43;100076.88;;;13.89;100.00
18813;BME280;9534;51.140;6.296;2023-03-16T15:46:47;100073.38;;;13.65;100.00
18813;BME280;9534;51.140;6.296;2023-03-16T15:50:52;100082.28;;;13.72;100.00
18813;BME280;9534;51.140;6.296;2023-03-16T15:54:56;100074.25;;;13.55;100.00
18813;BME280;9534;51.140;6.296;2023-03-16T15:59:12;100069.59;;;13.32;100.00
18813;BME280;9534;51.140;6.296;2023-03-16T16:03:18;100061.28;;;13.16;100.00
18813;BME280;9534;51.140;6.296;2023-03-16T16:07:21;100050.38;;;12.98;100.00
18813;BME280;9534;51.140;6.296;2023-03-16T16:11:26;100056.13;;;13.08;100.00
18813;BME280;9534;51.140;6.296;2023-03-16T16:15:32;100047.69;;;13.09;100.00
18813;BME280;9534;51.140;6.296;2023-03-16T16:19:38;100045.63;;;13.05;100.00
18813;BME280;9534;51.140;6.296;2023-03-16T16:23:41;100039.81;;;13.01;100.00
18813;BME280;9534;51.140;6.296;2023-03-16T16:27:45;100042.28;;;13.03;100.00
18813;BME280;9534;51.140;6.296;2023-03-16T16:31:50;100034.66;;;13.16;100.00
18813;BME280;9534;51.140;6.296;2023-03-16T16:35:55;100034.28;;;13.24;100.00
18813;BME280;9534;51.140;6.296;2023-03-16T16:39:59;100027.13;;;13.12;100.00
18813;BME280;9534;51.140;6.296;2023-03-16T16:44:03;100030.78;;;13.29;100.00
18813;BME280;9534;51.140;6.296;2023-03-16T16:48:31;100028.47;;;13.76;100.00
18813;BME280;9534;51.140;6.296;2023-03-16T16:52:35;100039.69;;;13.47;100.00
18813;BME280;9534;51.140;6.296;2023-03-16T16:56:39;100033.06;;;12.97;100.00
18813;BME280;9534;51.140;6.296;2023-03-16T17:00:49;100038.94;;;12.78;100.00
18813;BME280;9534;51.140;6.296;2023-03-16T17:04:55;100038.56;;;12.86;100.00
18813;BME280;9534;51.140;6.296;2023-03-16T17:08:58;100047.06;;;12.73;100.00
18813;BME280;9534;51.140;6.296;2023-03-16T17:13:02;100042.28;;;12.57;100.00
18813;BME280;9534;51.140;6.296;2023-03-16T17:17:11;100040.44;;;12.28;100.00
18813;BME280;9534;51.140;6.296;2023-03-16T17:21:18;100033.81;;;12.06;100.00
18813;BME280;9534;51.140;6.296;2023-03-16T17:25:25;100038.06;;;11.91;100.00
18813;BME280;9534;51.140;6.296;2023-03-16T17:29:30;100037.44;;;11.77;100.00
18813;BME280;9534;51.140;6.296;2023-03-16T17:33:35;100048.75;;;11.63;100.00
18813;BME280;9534;51.140;6.296;2023-03-16T17:37:40;100048.81;;;11.45;100.00
18813;BME280;9534;51.140;6.296;2023-03-16T17:41:44;100039.72;;;11.44;100.00
18813;BME280;9534;51.140;6.296;2023-03-16T17:45:49;100039.06;;;11.31;100.00
18813;BME280;9534;51.140;6.296;2023-03-16T17:49:53;100051.16;;;11.23;100.00
18813;BME280;9534;51.140;6.296;2023-03-16T17:53:59;100045.06;;;11.21;100.00
18813;BME280;9534;51.140;6.296;2023-03-16T17:58:04;100040.59;;;11.09;100.00
18813;BME280;9534;51.140;6.296;2023-03-16T18:02:23;100051.47;;;10.98;100.00
18813;BME280;9534;51.140;6.296;2023-03-16T18:06:34;100056.03;;;10.86;100.00
18813;BME280;9534;51.140;6.296;2023-03-16T18:10:39;100057.38;;;10.77;100.00
18813;BME280;9534;51.140;6.296;2023-03-16T18:14:42;100057.78;;;10.56;100.00
18813;BME280;9534;51.140;6.296;2023-03-16T18:18:45;100050.53;;;10.43;100.00
18813;BME280;9534;51.140;6.296;2023-03-16T18:22:49;100048.59;;;10.26;100.00
18813;BME280;9534;51.140;6.296;2023-03-16T18:26:53;100040.22;;;10.21;100.00
18813;BME280;9534;51.140;6.296;2023-03-16T18:30:57;100040.22;;;10.21;100.00
18813;BME280;9534;51.140;6.296;2023-03-16T18:35:02;100043.59;;;10.16;100.00
18813;BME280;9534;51.140;6.296;2023-03-16T18:39:09;100049.13;;;10.10;100.00
18813;BME280;9534;51.140;6.296;2023-03-16T18:43:18;100055.88;;;10.01;100.00
18813;BME280;9534;51.140;6.296;2023-03-16T18:47:22;100045.31;;;10.11;100.00
18813;BME280;9534;51.140;6.296;2023-03-16T18:51:32;100041.53;;;10.12;100.00
18813;BME280;9534;51.140;6.296;2023-03-16T18:55:36;100049.19;;;9.97;100.00
18813;BME280;9534;51.140;6.296;2023-03-16T18:59:49;100047.50;;;9.96;100.00
18813;BME280;9534;51.140;6.296;2023-03-16T19:03:53;100049.88;;;9.86;100.00
18813;BME280;9534;51.140;6.296;2023-03-16T19:07:56;100048.88;;;9.81;100.00
18813;BME280;9534;51.140;6.296;2023-03-16T19:11:59;100048.28;;;9.72;100.00
18813;BME280;9534;51.140;6.296;2023-03-16T19:16:14;100044.31;;;9.68;100.00
18813;BME280;9534;51.140;6.296;2023-03-16T19:20:20;100047.09;;;9.62;100.00
18813;BME280;9534;51.140;6.296;2023-03-16T19:24:26;100052.19;;;9.52;100.00
18813;BME280;9534;51.140;6.296;2023-03-16T19:28:33;100055.16;;;9.44;100.00
18813;BME280;9534;51.140;6.296;2023-03-16T19:32:39;100053.28;;;9.38;100.00
18813;BME280;9534;51.140;6.296;2023-03-16T19:36:42;100046.44;;;9.22;100.00
18813;BME280;9534;51.140;6.296;2023-03-16T19:40:47;100034.22;;;9.25;100.00
18813;BME280;9534;51.140;6.296;2023-03-16T19:44:52;100026.03;;;9.25;100.00
18813;BME280;9534;51.140;6.296;2023-03-16T19:48:58;100018.50;;;9.20;100.00
18813;BME280;9534;51.140;6.296;2023-03-16T19:53:07;100016.22;;;9.17;100.00
18813;BME280;9534;51.140;6.296;2023-03-16T19:57:17;99997.53;;;9.14;100.00
18813;BME280;9534;51.140;6.296;2023-03-16T20:01:24;99988.72;;;9.12;100.00
18813;BME280;9534;51.140;6.296;2023-03-16T20:05:35;99989.84;;;8.98;100.00
18813;BME280;9534;51.140;6.296;2023-03-16T20:09:39;99983.72;;;9.03;100.00
18813;BME280;9534;51.140;6.296;2023-03-16T20:13:43;99986.66;;;9.01;100.00
18813;BME280;9534;51.140;6.296;2023-03-16T20:17:48;99974.94;;;9.01;100.00
18813;BME280;9534;51.140;6.296;2023-03-16T20:21:53;99979.53;;;9.00;100.00
18813;BME280;9534;51.140;6.296;2023-03-16T20:25:57;99974.13;;;8.94;100.00
18813;BME280;9534;51.140;6.296;2023-03-16T20:30:13;99964.47;;;8.91;100.00
18813;BME280;9534;51.140;6.296;2023-03-16T20:34:20;99952.28;;;8.94;100.00
18813;BME280;9534;51.140;6.296;2023-03-16T20:38:26;99950.38;;;8.94;100.00
18813;BME280;9534;51.140;6.296;2023-03-16T20:42:32;99942.19;;;8.94;100.00
18813;BME280;9534;51.140;6.296;2023-03-16T20:46:36;99938.84;;;8.92;100.00
18813;BME280;9534;51.140;6.296;2023-03-16T20:50:42;99933.00;;;8.89;100.00
18813;BME280;9534;51.140;6.296;2023-03-16T20:54:47;99927.94;;;8.92;100.00
18813;BME280;9534;51.140;6.296;2023-03-16T20:58:50;99921.84;;;8.90;100.00
18813;BME280;9534;51.140;6.296;2023-03-16T21:02:57;99918.69;;;8.93;100.00
18813;BME280;9534;51.140;6.296;2023-03-16T21:07:00;99913.25;;;8.93;100.00
18813;BME280;9534;51.140;6.296;2023-03-16T21:11:17;99905.66;;;8.95;100.00
18813;BME280;9534;51.140;6.296;2023-03-16T21:15:23;99899.78;;;8.98;100.00
18813;BME280;9534;51.140;6.296;2023-03-16T21:19:27;99901.94;;;8.83;100.00
18813;BME280;9534;51.140;6.296;2023-03-16T21:23:31;99898.78;;;8.93;100.00
18813;BME280;9534;51.140;6.296;2023-03-16T21:27:36;99901.69;;;8.91;100.00
18813;BME280;9534;51.140;6.296;2023-03-16T21:31:40;99892.91;;;8.89;100.00
18813;BME280;9534;51.140;6.296;2023-03-16T21:35:44;99898.16;;;8.84;100.00
18813;BME280;9534;51.140;6.296;2023-03-16T21:39:47;99888.06;;;8.91;100.00
18813;BME280;9534;51.140;6.296;2023-03-16T21:43:52;99888.50;;;8.88;100.00
18813;BME280;9534;51.140;6.296;2023-03-16T21:47:56;99888.31;;;8.83;100.00